Strona główna
METAR-TAF:

METAR-TAF

Lotnisko :

Alpnach, Szwajcaria

Szerokość geograficzna: 46-56-19N, Długość geograficzna: 8-17-03E, wysokość: 440 m

Aktualna obserwacja pogody

Raport powstał 20 minut temu, godzina 13:20 UTC
Wiatr 8 kt od północny wschód, zmienny między północ i wschodnio-północny wschód
Temperatura 26°C
Wilgotność 45%
Ciśnienie 1014 hPa
Widzialność 10 km lub więcej
Rozproszone chmury na wysokości 7000 ft

METAR: LSMA 171320Z 05008KT 010V070 9999 SCT070 26/13 Q1014 RMK BLU+

czas: 15:40 (13:40 UTC)


TAF: brakujący

Obserwacja i prognoza pogody dla ponad 4000 lotnisk (raport METAR i TAF).

Dostępne stacje oznaczono żółtymi i czerwonymi punktami na mapie.

Najedź kursorem aby zobaczyć nazwę stacji.

Kliknij aby zobaczyć obserwacje i prognozy pogody.

Aby zmienić mapę: kliknij na zielony przycisk z czarnym krzyżykiem, aby powiększyć; na zielony przycisk z myślnikiem, aby pomniejszyć; na zielone strzałki, aby przejść do map sąsiednich.


METAR-TAF: